createdAt,value
2018-04-12T00:05:17.408Z,0
2018-04-12T00:15:31.852Z,0
2018-04-12T00:25:45.693Z,0
2018-04-12T00:36:01.110Z,0
2018-04-12T00:46:15.731Z,0
2018-04-12T00:56:31.261Z,0
2018-04-12T01:06:45.678Z,0
2018-04-12T01:17:00.748Z,0
2018-04-12T01:27:15.624Z,0
2018-04-12T01:37:30.906Z,0
2018-04-12T01:47:45.897Z,0
2018-04-12T01:58:01.176Z,0
2018-04-12T02:08:14.889Z,0
2018-04-12T02:18:29.902Z,0
2018-04-12T02:28:44.886Z,0
2018-04-12T02:38:59.534Z,0
2018-04-12T02:49:14.850Z,0
2018-04-12T02:59:30.374Z,0
2018-04-12T03:09:44.730Z,0
2018-04-12T03:20:00.367Z,0
2018-04-12T03:30:15.102Z,0
2018-04-12T03:40:30.683Z,0
2018-04-12T03:50:45.741Z,0
2018-04-12T04:00:59.682Z,0
2018-04-12T04:11:15.000Z,0
2018-04-12T04:21:30.213Z,0
2018-04-12T04:31:44.590Z,0
2018-04-12T04:41:59.514Z,10
2018-04-12T04:52:14.967Z,20
2018-04-12T05:02:30.366Z,40
2018-04-12T05:12:45.311Z,50
2018-04-12T05:23:00.967Z,55
2018-04-12T05:33:15.536Z,65
2018-04-12T05:43:30.159Z,75
2018-04-12T05:53:44.489Z,95
2018-04-12T06:03:58.565Z,125
2018-04-12T06:14:13.190Z,130
2018-04-12T06:24:26.962Z,200
2018-04-12T06:34:41.397Z,170
2018-04-12T06:44:56.703Z,125
2018-04-12T06:55:11.257Z,130
2018-04-12T07:05:26.369Z,175
2018-04-12T07:15:41.095Z,260
2018-04-12T07:25:55.418Z,360
2018-04-12T07:36:09.521Z,570
2018-04-12T07:46:24.604Z,580
2018-04-12T07:56:39.656Z,550
2018-04-12T08:06:55.287Z,605
2018-04-12T08:17:09.295Z,710
2018-04-12T08:27:23.076Z,770
2018-04-12T08:37:36.875Z,725
2018-04-12T08:47:52.313Z,540
2018-04-12T08:58:06.915Z,430
2018-04-12T09:08:22.437Z,375
2018-04-12T09:18:36.659Z,715
2018-04-12T09:28:51.170Z,915
2018-04-12T09:39:05.613Z,1190
2018-04-12T09:49:19.810Z,1160
2018-04-12T09:59:35.129Z,950
2018-04-12T10:09:49.012Z,1045
2018-04-12T10:20:03.994Z,960
2018-04-12T10:30:19.776Z,1320
2018-04-12T10:40:33.726Z,1055
2018-04-12T10:50:49.362Z,1200
2018-04-12T11:01:05.204Z,1315
2018-04-12T11:11:19.216Z,735
2018-04-12T11:21:34.562Z,1375
2018-04-12T11:31:48.859Z,1875
2018-04-12T11:42:04.582Z,1410
2018-04-12T11:52:18.954Z,1560
2018-04-12T12:02:33.841Z,1780
2018-04-12T12:12:49.714Z,1815
2018-04-12T12:23:05.657Z,1865
2018-04-12T12:33:19.335Z,1875
2018-04-12T12:43:35.213Z,1815
2018-04-12T12:53:50.068Z,1675
2018-04-12T13:04:05.048Z,1615
2018-04-12T13:14:20.305Z,1610
2018-04-12T13:24:34.544Z,1550
2018-04-12T13:34:49.852Z,1460
2018-04-12T13:45:04.624Z,1510
2018-04-12T13:55:18.915Z,1445
2018-04-12T14:05:33.821Z,1305
2018-04-12T14:15:48.688Z,1265
2018-04-12T14:26:02.682Z,1370
2018-04-12T14:36:17.576Z,1210
2018-04-12T14:46:33.002Z,975
2018-04-12T14:56:47.937Z,675
2018-04-12T15:07:03.669Z,1035
2018-04-12T15:17:18.949Z,680
2018-04-12T15:27:33.827Z,455
2018-04-12T15:37:49.345Z,275
2018-04-12T15:48:04.012Z,205
2018-04-12T15:58:18.871Z,135
2018-04-12T16:08:32.921Z,90
2018-04-12T16:18:47.345Z,65
2018-04-12T16:29:02.214Z,40
2018-04-12T16:39:17.679Z,20
2018-04-12T16:49:31.657Z,5
2018-04-12T16:59:46.807Z,5
2018-04-12T17:10:02.307Z,35
2018-04-12T17:20:16.831Z,90
2018-04-12T17:30:31.290Z,70
2018-04-12T17:40:46.524Z,70
2018-04-12T17:51:02.128Z,50
2018-04-12T18:01:17.668Z,35
2018-04-12T18:11:32.497Z,20
2018-04-12T18:21:47.188Z,10
2018-04-12T18:32:01.556Z,0
2018-04-12T18:42:16.545Z,0
2018-04-12T18:52:30.512Z,0
2018-04-12T19:02:44.939Z,0
2018-04-12T19:12:59.195Z,0
2018-04-12T19:23:13.164Z,0
2018-04-12T19:33:28.454Z,0
2018-04-12T19:43:43.766Z,0
2018-04-12T19:53:59.025Z,0
2018-04-12T20:04:13.521Z,0
2018-04-12T20:14:27.553Z,0
2018-04-12T20:24:41.349Z,0
2018-04-12T20:34:56.342Z,0
2018-04-12T20:45:11.599Z,0
2018-04-12T20:55:26.833Z,0
2018-04-12T21:05:40.554Z,0
2018-04-12T21:15:56.211Z,0
2018-04-12T21:26:10.415Z,0
2018-04-12T21:36:26.112Z,0
2018-04-12T21:46:40.310Z,0
2018-04-12T21:56:55.665Z,0
2018-04-12T22:07:09.923Z,0
2018-04-12T22:17:24.570Z,0
2018-04-12T22:27:40.251Z,0
2018-04-12T22:37:55.444Z,0
2018-04-12T22:48:11.069Z,0
2018-04-12T22:58:25.696Z,0
2018-04-12T23:08:39.478Z,0
2018-04-12T23:18:53.709Z,0
2018-04-12T23:29:08.394Z,0
2018-04-12T23:39:23.342Z,0
2018-04-12T23:49:38.415Z,0
2018-04-12T23:59:52.873Z,0
